Latest Weather Observations for Burketown Airport

IDQ60801

Issued at 6:09 pm EST Tuesday 26 July 2016 (issued every 30 minutes, with the page automatically refreshed every 10 minutes)

About weather observations | Map of weather stations | Latest weather observations for QLD | Other Formats
Station Details ID: 029077 Name: BURKETOWN AIRPORT Lat: -17.75 Lon: 139.54 Height: 5.7 m
Data from the previous 72 hours. | See also: Recent months at Burketown Airport
Date/Time
EST
Temp
°C
App
Temp
°C
Dew
Point
°C
Rel
Hum
%
Delta-T
°C
Wind Press
QNH
hPa
Press
MSL
hPa
Rain since
9am
mm
Dir  Spd
km/h
Gust
km/h
Spd
kts
Gust
kts
26/06:00pm 27.5 25.6 13.1 41 8.5 N 15 19 8 10 1013.5 1013.4 0.0
26/05:30pm 28.9 27.2 12.3 36 9.7 NNE 13 17 7 9 1013.3 - 0.0
26/05:00pm 29.4 27.9 11.9 34 10.2 ENE 11 19 6 10 1013.1 - 0.0
26/04:30pm 29.8 28.3 11.8 33 10.5 ENE 11 19 6 10 1013.1 - 0.0
26/04:00pm 29.9 28.8 11.9 33 10.5 NNE 9 19 5 10 1013.1 - 0.0
26/03:30pm 29.9 28.2 12.3 33 10.3 NE 13 20 7 11 1013.1 - 0.0
26/03:00pm 30.1 28.7 12.1 33 10.5 NE 11 19 6 10 1013.3 1013.2 0.0
26/02:30pm 29.7 28.5 11.7 33 10.4 E 9 26 5 14 1013.7 - 0.0
26/02:00pm 28.9 26.4 11.0 33 10.2 E 15 28 8 15 1014.0 - 0.0
26/01:30pm 29.0 27.4 10.2 31 10.6 ESE 9 17 5 9 1014.4 - 0.0
26/01:00pm 28.5 26.1 10.2 32 10.3 ENE 13 24 7 13 1014.9 - 0.0
26/12:30pm 28.3 25.0 9.6 31 10.4 ESE 17 26 9 14 1015.5 - 0.0
26/12:00pm 27.1 23.0 8.5 31 10.1 ESE 20 30 11 16 1016.1 1016.0 0.0
26/11:30am 26.5 22.1 7.5 30 10.1 SE 20 30 11 16 1016.6 - 0.0
26/11:00am 25.5 19.9 7.1 31 9.7 SSE 26 35 14 19 1016.8 - 0.0
26/10:30am 24.5 19.5 6.3 31 9.4 SSE 22 32 12 17 1017.1 - 0.0
26/10:00am 23.0 16.6 5.4 32 8.8 SSE 28 35 15 19 1017.3 - 0.0
26/09:30am 21.6 14.5 5.5 35 8.0 SSE 32 43 17 23 1017.3 - 0.0
26/09:00am 19.9 12.5 4.8 37 7.3 SSE 33 43 18 23 1017.2 1017.1 0.0
26/08:30am 19.0 12.1 4.7 39 6.9 SSE 30 39 16 21 1016.9 - 0.0
26/08:00am 18.1 12.4 5.0 42 6.3 SSE 24 32 13 17 1016.6 - 0.0
26/07:30am 17.1 11.4 4.8 44 5.8 SSE 24 28 13 15 1016.4 - 0.0
26/07:00am 17.0 11.3 4.7 44 5.8 SSE 24 30 13 16 1016.0 - 0.0
26/06:30am 17.3 11.2 4.6 43 6.0 SSE 26 33 14 18 1015.8 - 0.0
26/06:00am 17.5 11.8 4.8 43 6.0 SSE 24 30 13 16 1015.3 1015.2 0.0
26/05:30am 17.7 12.4 5.0 43 6.1 SSE 22 28 12 15 1015.1 - 0.0
26/05:00am 18.2 12.5 5.1 42 6.3 S 24 32 13 17 1015.0 - 0.0
26/04:30am 18.5 13.2 5.0 41 6.5 S 22 28 12 15 1014.8 - 0.0
26/04:00am 18.7 13.8 5.2 41 6.5 S 20 24 11 13 1014.9 - 0.0
26/03:30am 19.2 14.4 5.6 41 6.7 SSE 20 28 11 15 1014.9 - 0.0
26/03:00am 18.9 14.3 5.7 42 6.5 SSE 19 26 10 14 1015.0 1014.9 0.0
26/02:30am 19.6 14.4 5.6 40 6.9 SSE 22 30 12 16 1015.2 - 0.0
26/02:00am 19.9 15.1 5.5 39 7.1 SSE 20 30 11 16 1015.2 - 0.0
26/01:30am 19.8 15.2 5.5 39 7.0 SSE 19 22 10 12 1015.4 - 0.0
26/01:00am 20.5 15.6 5.3 37 7.5 SSE 20 26 11 14 1015.6 - 0.0
26/12:30am 21.0 16.2 5.4 36 7.7 SSE 20 26 11 14 1015.6 - 0.0
26/12:00am 21.7 16.8 5.2 34 8.2 SSE 20 26 11 14 1015.7 1015.6 0.0
 
Date/Time
EST
Temp
°C
App
Temp
°C
Dew
Point
°C
Rel
Hum
%
Delta-T
°C
Wind Press
QNH
hPa
Press
MSL
hPa
Rain since
9am
mm
Dir  Spd
km/h
Gust
km/h
Spd
kts
Gust
kts
25/11:30pm 22.5 16.8 5.0 32 8.7 SSE 24 30 13 16 1015.8 - 0.0
25/11:00pm 22.3 17.6 5.3 33 8.5 SSE 19 24 10 13 1015.9 - 0.0
25/10:30pm 21.9 17.0 5.3 34 8.2 S 20 24 11 13 1016.0 - 0.0
25/10:00pm 21.5 16.9 5.8 36 7.9 S 19 22 10 12 1016.0 - 0.0
25/09:30pm 21.6 17.4 5.9 36 7.9 S 17 19 9 10 1015.9 - 0.0
25/09:00pm 22.6 18.1 6.0 34 8.4 S 19 22 10 12 1015.6 1015.5 0.0
25/08:30pm 23.0 18.8 5.9 33 8.7 S 17 20 9 11 1015.3 - 0.0
25/08:00pm 24.2 20.1 6.0 31 9.3 SSE 17 20 9 11 1015.0 - 0.0
25/07:30pm 25.0 20.9 6.2 30 9.7 SSE 17 20 9 11 1014.6 - 0.0
25/07:00pm 25.8 21.6 5.9 28 10.3 SSE 17 22 9 12 1014.3 - 0.0
25/06:30pm 27.0 22.6 6.4 27 10.8 SSE 19 24 10 13 1014.1 - 0.0
25/06:00pm 28.4 23.0 6.5 25 11.6 SSE 24 35 13 19 1013.7 1013.6 0.0
25/05:30pm 29.3 23.8 6.0 23 12.3 SSE 24 30 13 16 1013.5 - 0.0
25/05:00pm 29.7 24.2 5.7 22 12.6 SSE 24 32 13 17 1013.4 - 0.0
25/04:30pm 30.1 24.4 6.7 23 12.5 SSE 26 35 14 19 1013.3 - 0.0
25/04:00pm 30.3 24.5 6.2 22 12.8 SSE 26 35 14 19 1013.3 - 0.0
25/03:30pm 30.1 25.0 6.1 22 12.7 SE 22 33 12 18 1013.3 - 0.0
25/03:00pm 30.8 25.8 6.6 22 13.0 SE 22 33 12 18 1013.5 1013.4 0.0
25/02:30pm 30.3 25.2 6.2 22 12.8 SSE 22 35 12 19 1013.8 - 0.0
25/02:00pm 30.1 24.8 6.7 23 12.5 SE 24 33 13 18 1014.2 - 0.0
25/01:30pm 29.2 22.8 5.3 22 12.4 SSE 28 39 15 21 1014.8 - 0.0
25/01:00pm 29.2 23.0 6.0 23 12.2 SSE 28 41 15 22 1015.2 - 0.0
25/12:30pm 28.7 22.1 6.1 24 11.9 SE 30 39 16 21 1015.6 - 0.0
25/12:00pm 28.0 21.3 5.6 24 11.6 SE 30 43 16 23 1016.0 1015.9 0.0
25/11:30am 27.8 21.2 6.0 25 11.4 SE 30 39 16 21 1016.3 - 0.0
25/11:00am 26.3 18.6 5.3 26 10.7 SSE 35 46 19 25 1016.6 - 0.0
25/10:30am 26.4 19.4 5.9 27 10.6 SE 32 43 17 23 1016.7 - 0.0
25/10:00am 24.5 16.4 5.3 29 9.7 SSE 37 48 20 26 1017.0 - 0.0
25/09:30am 23.6 15.1 5.0 30 9.3 SE 39 52 21 28 1017.0 - 0.0
25/09:08am 22.8 16.4 5.3 32 8.7 SSE 28 46 15 25 1016.9 - 0.0
25/09:00am 22.4 15.8 6.2 35 8.2 SSE 30 43 16 23 1016.9 1016.8 0.0
25/08:30am 21.3 15.8 6.0 37 7.7 SSE 24 33 13 18 1016.7 - 0.0
25/08:00am 19.8 15.3 6.2 41 6.8 SSE 19 28 10 15 1016.4 - 0.0
25/07:30am 18.9 14.6 7.0 46 6.0 SSE 19 24 10 13 1016.2 - 0.0
25/07:00am 18.9 14.5 7.4 47 5.8 SSE 20 26 11 14 1015.8 - 0.0
25/06:30am 19.4 15.0 7.5 46 6.1 SSE 20 24 11 13 1015.6 - 0.0
25/06:00am 20.1 15.4 7.8 45 6.3 SSE 22 30 12 16 1015.2 1015.1 0.0
25/05:30am 20.4 15.4 8.1 45 6.4 SSE 24 32 13 17 1015.0 - 0.0
25/05:00am 20.9 15.7 8.9 46 6.3 SSE 26 33 14 18 1014.7 - 0.0
25/04:30am 21.4 16.3 9.3 46 6.5 SSE 26 35 14 19 1014.6 - 0.0
25/04:00am 21.4 17.4 10.6 50 5.9 SSE 22 30 12 16 1014.6 - 0.0
25/03:30am 21.7 17.9 11.1 51 5.9 SSE 22 28 12 15 1014.6 - 0.0
25/03:00am 21.8 18.2 11.8 53 5.6 SSE 22 26 12 14 1014.5 1014.4 0.0
25/02:30am 21.7 19.0 12.8 57 5.1 SSE 19 26 10 14 1014.4 - 0.0
25/02:00am 21.5 19.8 13.7 61 4.5 SSE 15 17 8 9 1014.4 - 0.0
25/01:30am 20.8 19.8 15.6 72 3.1 S 15 19 8 10 1014.4 - 0.0
25/01:00am 19.2 18.8 15.3 78 2.3 S 11 13 6 7 1014.6 - 0.0
25/12:30am 19.8 19.3 15.9 78 2.3 S 13 15 7 8 1014.7 - 0.0
25/12:00am 19.6 18.7 15.9 79 2.2 S 15 17 8 9 1014.7 1014.6 0.0
 
Date/Time
EST
Temp
°C
App
Temp
°C
Dew
Point
°C
Rel
Hum
%
Delta-T
°C
Wind Press
QNH
hPa
Press
MSL
hPa
Rain since
9am
mm
Dir  Spd
km/h
Gust
km/h
Spd
kts
Gust
kts
24/11:30pm 19.9 20.6 16.2 79 2.2 S 7 9 4 5 1014.6 - 0.0
24/11:00pm 19.8 20.2 16.3 80 2.1 S 9 11 5 6 1014.9 - 0.0
24/10:30pm 20.0 19.7 16.4 80 2.2 SSW 13 17 7 9 1014.7 - 0.0
24/10:00pm 20.1 20.9 15.9 77 2.5 NNW 6 7 3 4 1014.5 - 0.0
24/09:30pm 20.4 21.7 17.0 81 2.1 NNW 6 6 3 3 1014.3 - 0.0
24/09:00pm 20.7 21.5 16.3 76 2.6 NNW 7 9 4 5 1014.2 1014.1 0.0
24/08:30pm 21.3 22.0 16.0 72 3.2 N 7 7 4 4 1014.0 - 0.0
24/08:00pm 22.0 22.9 16.5 71 3.3 N 7 9 4 5 1013.5 - 0.0
24/07:30pm 23.0 23.2 16.8 68 3.8 N 11 13 6 7 1013.1 - 0.0
24/07:00pm 24.0 24.2 16.8 64 4.4 NNE 11 13 6 7 1012.8 - 0.0
24/06:30pm 25.4 25.2 16.8 59 5.3 NNE 13 17 7 9 1012.7 - 0.0
24/06:00pm 26.9 26.0 16.8 54 6.3 NNE 17 22 9 12 1012.5 1012.4 0.0
24/05:30pm 27.8 26.2 16.4 50 7.1 NNE 20 26 11 14 1012.4 - 0.0
24/05:00pm 28.6 26.5 16.2 47 7.7 NNE 22 30 12 16 1012.2 - 0.0
24/04:30pm 30.2 27.6 15.9 42 8.9 NNE 24 30 13 16 1011.8 - 0.0
24/04:00pm 30.8 27.6 15.2 38 9.6 NNE 26 35 14 19 1011.7 - 0.0
24/03:30pm 32.3 31.2 14.4 33 10.9 ESE 13 28 7 15 1011.7 - 0.0
24/03:00pm 32.8 30.8 14.9 34 11.0 E 19 28 10 15 1012.0 1011.9 0.0
24/02:30pm 32.5 31.3 15.1 35 10.8 ESE 15 30 8 16 1012.4 - 0.0
24/02:00pm 31.9 29.7 14.5 34 10.6 E 19 28 10 15 1012.9 - 0.0
24/01:30pm 31.7 28.7 14.8 36 10.4 SE 24 37 13 20 1013.5 - 0.0
24/01:00pm 31.0 28.2 14.2 36 10.2 SE 22 33 12 18 1014.1 - 0.0
24/12:30pm 30.6 27.8 14.2 36 9.9 SE 22 32 12 17 1014.4 - 0.0
24/12:00pm 29.5 26.5 13.7 38 9.4 SSE 22 32 12 17 1014.9 1014.8 0.0
24/11:30am 29.1 25.2 13.3 37 9.4 SSE 26 35 14 19 1015.2 - 0.0
24/11:00am 27.6 23.5 12.8 40 8.7 SE 26 32 14 17 1015.7 - 0.0
24/10:30am 27.1 23.3 12.3 39 8.6 S 24 30 13 16 1015.6 - 0.0
24/10:00am 25.9 22.1 12.4 43 7.8 S 24 32 13 17 1015.6 - 0.0
24/09:30am 24.2 19.9 11.9 46 7.0 SSE 26 32 14 17 1015.6 - 0.0
24/09:00am 22.5 18.0 11.3 49 6.2 SSE 26 33 14 18 1015.4 1015.3 0.0
24/08:30am 21.4 17.1 10.9 51 5.8 SSE 24 30 13 16 1015.2 - 0.0
24/08:00am 20.4 16.9 10.8 54 5.2 SSE 20 28 11 15 1015.0 - 0.0
24/07:30am 19.5 16.0 11.0 58 4.6 SSE 20 26 11 14 1014.8 - 0.0
24/07:00am 19.6 16.4 11.1 58 4.6 SSE 19 24 10 13 1014.5 - 0.0
24/06:30am 20.0 16.9 11.5 58 4.7 SSE 19 24 10 13 1014.4 - 0.0
24/06:00am 19.9 17.3 11.9 60 4.4 S 17 20 9 11 1014.0 1013.9 0.0
24/05:30am 20.0 17.5 12.3 61 4.3 SSE 17 20 9 11 1013.6 - 0.0
24/05:00am 20.2 18.1 12.4 61 4.4 SSE 15 19 8 10 1013.4 - 0.0
24/04:30am 20.1 18.1 12.8 63 4.1 S 15 19 8 10 1013.4 - 0.0
24/04:00am 19.8 18.2 12.8 64 3.9 S 13 17 7 9 1013.2 - 0.0
24/03:30am 20.7 18.9 13.2 62 4.3 S 15 17 8 9 1013.1 - 0.0
24/03:00am 20.9 19.6 13.8 64 4.1 SSW 13 15 7 8 1013.2 1013.1 0.0
24/02:30am 22.0 21.0 15.6 67 3.8 S 15 17 8 9 1013.1 - 0.0
24/02:00am 22.3 22.3 17.2 73 3.1 SSE 13 19 7 10 1013.0 - 0.0
24/01:30am 20.7 21.8 18.1 85 1.6 S 9 13 5 7 1013.0 - 0.0
24/01:00am 20.2 20.4 18.5 90 1.1 E 15 17 8 9 1012.5 - 0.0
24/12:30am 20.0 21.2 18.3 90 1.1 ESE 9 11 5 6 1012.6 - 0.0
24/12:00am 20.1 21.3 18.2 89 1.2 ESE 9 9 5 5 1012.6 1012.5 0.0
 
Date/Time
EST
Temp
°C
App
Temp
°C
Dew
Point
°C
Rel
Hum
%
Delta-T
°C
Wind Press
QNH
hPa
Press
MSL
hPa
Rain since
9am
mm
Dir  Spd
km/h
Gust
km/h
Spd
kts
Gust
kts
23/11:30pm 20.2 21.9 18.0 87 1.4 S 6 9 3 5 1012.4 - 0.0
23/11:00pm 20.7 23.3 17.5 82 2.0 CALM 0 0 0 0 1012.4 - 0.0
23/10:30pm 20.3 22.9 17.5 84 1.7 CALM 0 0 0 0 1012.3 - 0.0
23/10:00pm 20.8 23.6 18.0 84 1.7 CALM 0 0 0 0 1012.1 - 0.0
23/09:30pm 21.4 24.4 18.4 83 1.9 CALM 0 0 0 0 1011.9 - 0.0
23/09:00pm 21.7 23.4 18.1 80 2.2 N 6 7 3 4 1011.8 1011.7 0.0
23/08:30pm 22.6 24.0 18.6 78 2.5 N 9 11 5 6 1011.7 - 0.0
23/08:00pm 23.3 24.7 18.6 75 3.0 N 9 13 5 7 1011.5 - 0.0
23/07:30pm 24.1 24.7 18.7 72 3.4 NNE 13 15 7 8 1011.1 - 0.0
23/07:00pm 25.3 25.9 18.7 67 4.2 NNE 13 17 7 9 1010.8 - 0.0
23/06:30pm 26.6 26.6 18.2 60 5.3 NNE 15 19 8 10 1010.6 - 0.0

Other Formats:

Comma delimited format used in spreadsheet applications
http://www.bom.gov.au/fwo/IDQ60801/IDQ60801.94260.axf

JavaScript Object Notation format (JSON) in row-major order
http://www.bom.gov.au/fwo/IDQ60801/IDQ60801.94260.json